sensor_id;sensor_type;location;lat;lon;timestamp;temperature;humidity
32400;DHT22;45045;45.440;9.178;2022-12-24T00:01:13;12.10;99.90
32400;DHT22;45045;45.440;9.178;2022-12-24T00:03:39;12.00;99.90
32400;DHT22;45045;45.440;9.178;2022-12-24T00:06:12;12.10;99.90
32400;DHT22;45045;45.440;9.178;2022-12-24T00:08:40;12.10;99.90
32400;DHT22;45045;45.440;9.178;2022-12-24T00:11:06;12.00;99.90
32400;DHT22;45045;45.440;9.178;2022-12-24T00:13:32;12.00;99.90
32400;DHT22;45045;45.440;9.178;2022-12-24T00:15:59;12.00;99.90
32400;DHT22;45045;45.440;9.178;2022-12-24T00:18:25;12.00;99.90
32400;DHT22;45045;45.440;9.178;2022-12-24T00:20:51;12.00;99.90
32400;DHT22;45045;45.440;9.178;2022-12-24T00:23:18;12.00;99.90
32400;DHT22;45045;45.440;9.178;2022-12-24T00:25:44;12.00;99.90
32400;DHT22;45045;45.440;9.178;2022-12-24T00:28:10;12.10;99.90
32400;DHT22;45045;45.440;9.178;2022-12-24T00:30:40;12.10;99.90
32400;DHT22;45045;45.440;9.178;2022-12-24T00:33:07;12.10;99.90
32400;DHT22;45045;45.440;9.178;2022-12-24T00:35:34;12.00;99.90
32400;DHT22;45045;45.440;9.178;2022-12-24T00:38:00;12.00;99.90
32400;DHT22;45045;45.440;9.178;2022-12-24T00:40:28;12.10;99.90
32400;DHT22;45045;45.440;9.178;2022-12-24T00:42:54;12.00;99.90
32400;DHT22;45045;45.440;9.178;2022-12-24T00:45:21;12.00;99.90
32400;DHT22;45045;45.440;9.178;2022-12-24T00:47:47;12.00;99.90
32400;DHT22;45045;45.440;9.178;2022-12-24T00:50:14;12.10;99.90
32400;DHT22;45045;45.440;9.178;2022-12-24T00:52:40;12.10;99.90
32400;DHT22;45045;45.440;9.178;2022-12-24T00:55:06;12.10;99.90
32400;DHT22;45045;45.440;9.178;2022-12-24T00:57:32;12.00;99.90
32400;DHT22;45045;45.440;9.178;2022-12-24T00:59:58;12.10;99.90
32400;DHT22;45045;45.440;9.178;2022-12-24T01:02:24;12.10;99.90
32400;DHT22;45045;45.440;9.178;2022-12-24T01:04:50;12.10;99.90
32400;DHT22;45045;45.440;9.178;2022-12-24T01:07:34;12.10;99.90
32400;DHT22;45045;45.440;9.178;2022-12-24T01:10:00;12.10;99.90
32400;DHT22;45045;45.440;9.178;2022-12-24T01:12:26;12.10;99.90
32400;DHT22;45045;45.440;9.178;2022-12-24T01:14:52;12.10;99.90
32400;DHT22;45045;45.440;9.178;2022-12-24T01:17:18;12.20;99.90
32400;DHT22;45045;45.440;9.178;2022-12-24T01:19:43;12.10;99.90
32400;DHT22;45045;45.440;9.178;2022-12-24T01:22:09;12.10;99.90
32400;DHT22;45045;45.440;9.178;2022-12-24T01:24:35;12.20;99.90
32400;DHT22;45045;45.440;9.178;2022-12-24T01:27:01;12.20;99.90
32400;DHT22;45045;45.440;9.178;2022-12-24T01:29:27;12.10;99.90
32400;DHT22;45045;45.440;9.178;2022-12-24T01:31:52;12.10;99.90
32400;DHT22;45045;45.440;9.178;2022-12-24T01:34:18;12.10;99.90
32400;DHT22;45045;45.440;9.178;2022-12-24T01:36:44;12.20;99.90
32400;DHT22;45045;45.440;9.178;2022-12-24T01:39:10;12.20;99.90
32400;DHT22;45045;45.440;9.178;2022-12-24T01:41:36;12.20;99.90
32400;DHT22;45045;45.440;9.178;2022-12-24T01:44:25;12.20;99.90
32400;DHT22;45045;45.440;9.178;2022-12-24T01:47:01;12.30;99.90
32400;DHT22;45045;45.440;9.178;2022-12-24T01:49:28;12.30;99.90
32400;DHT22;45045;45.440;9.178;2022-12-24T01:51:59;12.20;99.90
32400;DHT22;45045;45.440;9.178;2022-12-24T01:57:23;12.30;99.90
32400;DHT22;45045;45.440;9.178;2022-12-24T01:59:54;12.20;99.90
32400;DHT22;45045;45.440;9.178;2022-12-24T02:02:20;12.20;99.90
32400;DHT22;45045;45.440;9.178;2022-12-24T02:05:03;12.20;99.90
32400;DHT22;45045;45.440;9.178;2022-12-24T02:07:30;12.20;99.90
32400;DHT22;45045;45.440;9.178;2022-12-24T02:10:00;12.00;99.90
32400;DHT22;45045;45.440;9.178;2022-12-24T02:12:31;12.00;99.90
32400;DHT22;45045;45.440;9.178;2022-12-24T02:14:59;12.10;99.90
32400;DHT22;45045;45.440;9.178;2022-12-24T02:29:01;12.00;99.90
32400;DHT22;45045;45.440;9.178;2022-12-24T02:34:12;12.00;99.90
32400;DHT22;45045;45.440;9.178;2022-12-24T02:37:06;12.00;99.90
32400;DHT22;45045;45.440;9.178;2022-12-24T02:39:44;12.10;99.90
32400;DHT22;45045;45.440;9.178;2022-12-24T02:42:14;12.00;99.90
32400;DHT22;45045;45.440;9.178;2022-12-24T02:44:57;12.00;99.90
32400;DHT22;45045;45.440;9.178;2022-12-24T02:47:27;12.00;99.90
32400;DHT22;45045;45.440;9.178;2022-12-24T02:49:53;11.90;99.90
32400;DHT22;45045;45.440;9.178;2022-12-24T02:52:34;12.00;99.90
32400;DHT22;45045;45.440;9.178;2022-12-24T03:00:16;12.00;99.90
32400;DHT22;45045;45.440;9.178;2022-12-24T03:03:05;12.00;99.90
32400;DHT22;45045;45.440;9.178;2022-12-24T03:06:02;12.00;99.90
32400;DHT22;45045;45.440;9.178;2022-12-24T03:11:15;12.00;99.90
32400;DHT22;45045;45.440;9.178;2022-12-24T03:13:43;12.00;99.90
32400;DHT22;45045;45.440;9.178;2022-12-24T03:16:15;12.00;99.90
32400;DHT22;45045;45.440;9.178;2022-12-24T03:18:44;12.00;99.90
32400;DHT22;45045;45.440;9.178;2022-12-24T03:21:22;12.00;99.90
32400;DHT22;45045;45.440;9.178;2022-12-24T03:23:48;12.00;99.90
32400;DHT22;45045;45.440;9.178;2022-12-24T03:26:17;11.90;99.90
32400;DHT22;45045;45.440;9.178;2022-12-24T03:28:44;11.90;99.90
32400;DHT22;45045;45.440;9.178;2022-12-24T03:31:11;12.00;99.90
32400;DHT22;45045;45.440;9.178;2022-12-24T03:33:37;12.00;99.90
32400;DHT22;45045;45.440;9.178;2022-12-24T03:36:04;11.90;99.90
32400;DHT22;45045;45.440;9.178;2022-12-24T03:38:30;11.90;99.90
32400;DHT22;45045;45.440;9.178;2022-12-24T03:40:56;11.90;99.90
32400;DHT22;45045;45.440;9.178;2022-12-24T03:43:22;11.90;99.90
32400;DHT22;45045;45.440;9.178;2022-12-24T03:45:47;11.90;99.90
32400;DHT22;45045;45.440;9.178;2022-12-24T03:48:13;12.00;99.90
32400;DHT22;45045;45.440;9.178;2022-12-24T03:50:39;12.00;99.90
32400;DHT22;45045;45.440;9.178;2022-12-24T03:53:05;11.90;99.90
32400;DHT22;45045;45.440;9.178;2022-12-24T03:55:31;11.90;99.90
32400;DHT22;45045;45.440;9.178;2022-12-24T03:57:56;12.00;99.90
32400;DHT22;45045;45.440;9.178;2022-12-24T04:00:22;11.90;99.90
32400;DHT22;45045;45.440;9.178;2022-12-24T04:02:48;11.90;99.90
32400;DHT22;45045;45.440;9.178;2022-12-24T04:05:16;12.00;99.90
32400;DHT22;45045;45.440;9.178;2022-12-24T04:07:42;12.00;99.90
32400;DHT22;45045;45.440;9.178;2022-12-24T04:10:08;12.10;99.90
32400;DHT22;45045;45.440;9.178;2022-12-24T04:12:34;12.00;99.90
32400;DHT22;45045;45.440;9.178;2022-12-24T04:15:00;12.00;99.90
32400;DHT22;45045;45.440;9.178;2022-12-24T04:17:26;12.00;99.90
32400;DHT22;45045;45.440;9.178;2022-12-24T04:19:52;12.10;99.90
32400;DHT22;45045;45.440;9.178;2022-12-24T04:22:18;12.10;99.90
32400;DHT22;45045;45.440;9.178;2022-12-24T04:24:43;12.00;99.90
32400;DHT22;45045;45.440;9.178;2022-12-24T04:27:09;12.00;99.90
32400;DHT22;45045;45.440;9.178;2022-12-24T04:29:35;12.00;99.90
32400;DHT22;45045;45.440;9.178;2022-12-24T04:32:01;12.00;99.90
32400;DHT22;45045;45.440;9.178;2022-12-24T04:34:26;11.90;99.90
32400;DHT22;45045;45.440;9.178;2022-12-24T04:36:52;11.90;99.90
32400;DHT22;45045;45.440;9.178;2022-12-24T04:39:18;11.90;99.90
32400;DHT22;45045;45.440;9.178;2022-12-24T04:41:44;11.90;99.90
32400;DHT22;45045;45.440;9.178;2022-12-24T04:44:09;12.00;99.90
32400;DHT22;45045;45.440;9.178;2022-12-24T04:46:35;11.90;99.90
32400;DHT22;45045;45.440;9.178;2022-12-24T04:49:01;11.90;99.90
32400;DHT22;45045;45.440;9.178;2022-12-24T04:51:27;11.90;99.90
32400;DHT22;45045;45.440;9.178;2022-12-24T04:53:54;11.90;99.90
32400;DHT22;45045;45.440;9.178;2022-12-24T04:56:23;12.00;99.90
32400;DHT22;45045;45.440;9.178;2022-12-24T04:58:49;12.00;99.90
32400;DHT22;45045;45.440;9.178;2022-12-24T05:01:20;12.00;99.90
32400;DHT22;45045;45.440;9.178;2022-12-24T05:03:46;12.00;99.90
32400;DHT22;45045;45.440;9.178;2022-12-24T05:06:14;12.00;99.90
32400;DHT22;45045;45.440;9.178;2022-12-24T05:08:40;12.00;99.90
32400;DHT22;45045;45.440;9.178;2022-12-24T05:11:06;12.00;99.90
32400;DHT22;45045;45.440;9.178;2022-12-24T05:13:33;12.00;99.90
32400;DHT22;45045;45.440;9.178;2022-12-24T05:15:59;12.00;99.90
32400;DHT22;45045;45.440;9.178;2022-12-24T05:18:25;12.00;99.90
32400;DHT22;45045;45.440;9.178;2022-12-24T05:20:50;12.00;99.90
32400;DHT22;45045;45.440;9.178;2022-12-24T05:23:22;12.00;99.90
32400;DHT22;45045;45.440;9.178;2022-12-24T05:26:22;12.00;99.90
32400;DHT22;45045;45.440;9.178;2022-12-24T05:28:52;12.00;99.90
32400;DHT22;45045;45.440;9.178;2022-12-24T05:31:19;12.00;99.90
32400;DHT22;45045;45.440;9.178;2022-12-24T05:33:45;12.00;99.90
32400;DHT22;45045;45.440;9.178;2022-12-24T05:36:11;12.00;99.90
32400;DHT22;45045;45.440;9.178;2022-12-24T05:38:37;12.00;99.90
32400;DHT22;45045;45.440;9.178;2022-12-24T05:41:03;12.00;99.90
32400;DHT22;45045;45.440;9.178;2022-12-24T05:43:28;12.00;99.90
32400;DHT22;45045;45.440;9.178;2022-12-24T05:46:02;12.00;99.90
32400;DHT22;45045;45.440;9.178;2022-12-24T05:48:28;12.10;99.90
32400;DHT22;45045;45.440;9.178;2022-12-24T05:50:54;12.00;99.90
32400;DHT22;45045;45.440;9.178;2022-12-24T05:53:21;12.00;99.90
32400;DHT22;45045;45.440;9.178;2022-12-24T05:55:47;12.00;99.90
32400;DHT22;45045;45.440;9.178;2022-12-24T05:58:13;12.00;99.90
32400;DHT22;45045;45.440;9.178;2022-12-24T06:00:39;12.00;99.90
32400;DHT22;45045;45.440;9.178;2022-12-24T06:03:05;11.90;99.90
32400;DHT22;45045;45.440;9.178;2022-12-24T06:05:30;11.90;99.90
32400;DHT22;45045;45.440;9.178;2022-12-24T06:07:56;11.80;99.90
32400;DHT22;45045;45.440;9.178;2022-12-24T06:10:22;11.80;99.90
32400;DHT22;45045;45.440;9.178;2022-12-24T06:12:49;11.90;99.90
32400;DHT22;45045;45.440;9.178;2022-12-24T06:15:15;11.90;99.90
32400;DHT22;45045;45.440;9.178;2022-12-24T06:17:41;11.90;99.90
32400;DHT22;45045;45.440;9.178;2022-12-24T06:20:07;11.90;99.90
32400;DHT22;45045;45.440;9.178;2022-12-24T06:22:33;11.90;99.90
32400;DHT22;45045;45.440;9.178;2022-12-24T06:24:59;11.80;99.90
32400;DHT22;45045;45.440;9.178;2022-12-24T06:27:25;11.80;99.90
32400;DHT22;45045;45.440;9.178;2022-12-24T06:29:50;11.80;99.90
32400;DHT22;45045;45.440;9.178;2022-12-24T06:32:16;11.80;99.90
32400;DHT22;45045;45.440;9.178;2022-12-24T06:34:42;11.80;99.90
32400;DHT22;45045;45.440;9.178;2022-12-24T06:37:08;11.80;99.90
32400;DHT22;45045;45.440;9.178;2022-12-24T06:39:45;11.80;99.90
32400;DHT22;45045;45.440;9.178;2022-12-24T06:42:12;11.90;99.90
32400;DHT22;45045;45.440;9.178;2022-12-24T06:44:38;11.90;99.90
32400;DHT22;45045;45.440;9.178;2022-12-24T06:47:04;11.80;99.90
32400;DHT22;45045;45.440;9.178;2022-12-24T06:49:30;11.80;99.90
32400;DHT22;45045;45.440;9.178;2022-12-24T06:51:56;11.80;99.90
32400;DHT22;45045;45.440;9.178;2022-12-24T06:54:22;11.80;99.90
32400;DHT22;45045;45.440;9.178;2022-12-24T06:56:47;11.80;99.90
32400;DHT22;45045;45.440;9.178;2022-12-24T06:59:13;11.80;99.90
32400;DHT22;45045;45.440;9.178;2022-12-24T07:01:39;11.80;99.90
32400;DHT22;45045;45.440;9.178;2022-12-24T07:04:05;11.90;99.90
32400;DHT22;45045;45.440;9.178;2022-12-24T07:06:31;11.90;99.90
32400;DHT22;45045;45.440;9.178;2022-12-24T07:08:57;11.90;99.90
32400;DHT22;45045;45.440;9.178;2022-12-24T07:11:23;11.90;99.90
32400;DHT22;45045;45.440;9.178;2022-12-24T07:13:50;11.90;99.90
32400;DHT22;45045;45.440;9.178;2022-12-24T07:16:16;11.90;99.90
32400;DHT22;45045;45.440;9.178;2022-12-24T07:18:42;11.90;99.90
32400;DHT22;45045;45.440;9.178;2022-12-24T07:21:07;11.90;99.90
32400;DHT22;45045;45.440;9.178;2022-12-24T07:23:33;11.90;99.90
32400;DHT22;45045;45.440;9.178;2022-12-24T07:26:01;11.80;99.90
32400;DHT22;45045;45.440;9.178;2022-12-24T07:28:28;11.80;99.90
32400;DHT22;45045;45.440;9.178;2022-12-24T07:30:55;11.80;99.90
32400;DHT22;45045;45.440;9.178;2022-12-24T07:33:21;11.80;99.90
32400;DHT22;45045;45.440;9.178;2022-12-24T07:35:47;11.80;99.90
32400;DHT22;45045;45.440;9.178;2022-12-24T07:38:13;11.80;99.90
32400;DHT22;45045;45.440;9.178;2022-12-24T07:40:38;11.80;99.90
32400;DHT22;45045;45.440;9.178;2022-12-24T07:43:05;11.80;99.90
32400;DHT22;45045;45.440;9.178;2022-12-24T07:45:31;11.80;99.90
32400;DHT22;45045;45.440;9.178;2022-12-24T07:47:57;11.80;99.90
32400;DHT22;45045;45.440;9.178;2022-12-24T07:50:22;11.80;99.90
32400;DHT22;45045;45.440;9.178;2022-12-24T07:52:48;11.80;99.90
32400;DHT22;45045;45.440;9.178;2022-12-24T07:55:14;11.80;99.90
32400;DHT22;45045;45.440;9.178;2022-12-24T07:57:40;11.80;99.90
32400;DHT22;45045;45.440;9.178;2022-12-24T08:00:06;11.70;99.90
32400;DHT22;45045;45.440;9.178;2022-12-24T08:02:32;11.80;99.90
32400;DHT22;45045;45.440;9.178;2022-12-24T08:04:58;11.70;99.90
32400;DHT22;45045;45.440;9.178;2022-12-24T08:07:24;11.80;99.90
32400;DHT22;45045;45.440;9.178;2022-12-24T08:09:49;11.80;99.90
32400;DHT22;45045;45.440;9.178;2022-12-24T08:12:15;11.80;99.90
32400;DHT22;45045;45.440;9.178;2022-12-24T08:14:41;11.90;99.90
32400;DHT22;45045;45.440;9.178;2022-12-24T08:17:07;11.90;99.90
32400;DHT22;45045;45.440;9.178;2022-12-24T08:19:33;11.80;99.90
32400;DHT22;45045;45.440;9.178;2022-12-24T08:21:58;11.90;99.90
32400;DHT22;45045;45.440;9.178;2022-12-24T08:24:24;11.90;99.90
32400;DHT22;45045;45.440;9.178;2022-12-24T08:26:50;11.90;99.90
32400;DHT22;45045;45.440;9.178;2022-12-24T08:29:16;11.90;99.90
32400;DHT22;45045;45.440;9.178;2022-12-24T08:31:42;11.80;99.90
32400;DHT22;45045;45.440;9.178;2022-12-24T08:34:09;11.90;99.90
32400;DHT22;45045;45.440;9.178;2022-12-24T08:36:35;11.90;99.90
32400;DHT22;45045;45.440;9.178;2022-12-24T08:39:01;11.80;99.90
32400;DHT22;45045;45.440;9.178;2022-12-24T08:41:29;11.80;99.90
32400;DHT22;45045;45.440;9.178;2022-12-24T08:43:55;11.80;99.90
32400;DHT22;45045;45.440;9.178;2022-12-24T08:46:21;11.80;99.90
32400;DHT22;45045;45.440;9.178;2022-12-24T08:48:47;11.90;99.90
32400;DHT22;45045;45.440;9.178;2022-12-24T08:51:13;11.90;99.90
32400;DHT22;45045;45.440;9.178;2022-12-24T08:53:39;11.90;99.90
32400;DHT22;45045;45.440;9.178;2022-12-24T08:56:07;12.00;99.90
32400;DHT22;45045;45.440;9.178;2022-12-24T08:58:34;11.90;99.90
32400;DHT22;45045;45.440;9.178;2022-12-24T09:01:00;11.90;99.90
32400;DHT22;45045;45.440;9.178;2022-12-24T09:03:26;11.90;99.90
32400;DHT22;45045;45.440;9.178;2022-12-24T09:05:52;12.00;99.90
32400;DHT22;45045;45.440;9.178;2022-12-24T09:08:19;12.30;99.90
32400;DHT22;45045;45.440;9.178;2022-12-24T09:10:45;13.20;99.90
32400;DHT22;45045;45.440;9.178;2022-12-24T09:13:11;13.70;99.90
32400;DHT22;45045;45.440;9.178;2022-12-24T09:15:37;13.20;99.90
32400;DHT22;45045;45.440;9.178;2022-12-24T09:18:03;13.00;99.90
32400;DHT22;45045;45.440;9.178;2022-12-24T09:20:29;13.00;99.90
32400;DHT22;45045;45.440;9.178;2022-12-24T09:22:55;12.70;99.90
32400;DHT22;45045;45.440;9.178;2022-12-24T09:25:20;12.90;99.90
32400;DHT22;45045;45.440;9.178;2022-12-24T09:27:46;13.10;99.90
32400;DHT22;45045;45.440;9.178;2022-12-24T09:30:12;13.00;99.90
32400;DHT22;45045;45.440;9.178;2022-12-24T09:32:38;13.40;99.90
32400;DHT22;45045;45.440;9.178;2022-12-24T09:35:04;14.10;99.90
32400;DHT22;45045;45.440;9.178;2022-12-24T09:37:30;14.50;99.90
32400;DHT22;45045;45.440;9.178;2022-12-24T09:39:55;14.90;99.90
32400;DHT22;45045;45.440;9.178;2022-12-24T09:44:53;15.20;99.90
32400;DHT22;45045;45.440;9.178;2022-12-24T09:47:28;15.40;99.90
32400;DHT22;45045;45.440;9.178;2022-12-24T09:50:01;15.50;99.90
32400;DHT22;45045;45.440;9.178;2022-12-24T09:52:37;15.60;99.90
32400;DHT22;45045;45.440;9.178;2022-12-24T09:57:39;15.70;99.90
32400;DHT22;45045;45.440;9.178;2022-12-24T10:00:30;15.80;99.90
32400;DHT22;45045;45.440;9.178;2022-12-24T10:02:57;15.60;99.90
32400;DHT22;45045;45.440;9.178;2022-12-24T10:05:36;15.60;99.90
32400;DHT22;45045;45.440;9.178;2022-12-24T10:10:53;15.80;99.90
32400;DHT22;45045;45.440;9.178;2022-12-24T10:13:42;15.70;99.90
32400;DHT22;45045;45.440;9.178;2022-12-24T10:16:31;14.70;99.90
32400;DHT22;45045;45.440;9.178;2022-12-24T10:22:07;13.90;99.90
32400;DHT22;45045;45.440;9.178;2022-12-24T10:24:56;13.60;99.90
32400;DHT22;45045;45.440;9.178;2022-12-24T10:27:34;14.00;99.90
32400;DHT22;45045;45.440;9.178;2022-12-24T10:30:05;13.50;99.90
32400;DHT22;45045;45.440;9.178;2022-12-24T10:32:33;13.50;99.90
32400;DHT22;45045;45.440;9.178;2022-12-24T10:35:05;13.40;99.90
32400;DHT22;45045;45.440;9.178;2022-12-24T10:37:33;13.50;99.90
32400;DHT22;45045;45.440;9.178;2022-12-24T10:39:59;13.70;99.90
32400;DHT22;45045;45.440;9.178;2022-12-24T10:42:38;13.70;99.90
32400;DHT22;45045;45.440;9.178;2022-12-24T10:45:13;13.90;99.90
32400;DHT22;45045;45.440;9.178;2022-12-24T10:47:42;13.90;99.90
32400;DHT22;45045;45.440;9.178;2022-12-24T10:50:20;13.50;99.90
32400;DHT22;45045;45.440;9.178;2022-12-24T10:52:50;13.10;99.90
32400;DHT22;45045;45.440;9.178;2022-12-24T10:55:22;13.50;99.90
32400;DHT22;45045;45.440;9.178;2022-12-24T10:58:06;14.20;99.90
32400;DHT22;45045;45.440;9.178;2022-12-24T11:00:37;14.70;99.90
32400;DHT22;45045;45.440;9.178;2022-12-24T11:05:38;15.30;99.90
32400;DHT22;45045;45.440;9.178;2022-12-24T11:08:16;15.50;99.90
32400;DHT22;45045;45.440;9.178;2022-12-24T11:11:44;14.70;99.90
32400;DHT22;45045;45.440;9.178;2022-12-24T11:13:43;14.20;99.90
32400;DHT22;45045;45.440;9.178;2022-12-24T11:16:31;13.60;99.90
32400;DHT22;45045;45.440;9.178;2022-12-24T11:19:00;13.30;99.90
32400;DHT22;45045;45.440;9.178;2022-12-24T11:21:31;13.10;99.90
32400;DHT22;45045;45.440;9.178;2022-12-24T11:26:36;13.00;99.90
32400;DHT22;45045;45.440;9.178;2022-12-24T11:31:33;12.90;99.90
32400;DHT22;45045;45.440;9.178;2022-12-24T11:34:26;13.00;99.90
32400;DHT22;45045;45.440;9.178;2022-12-24T11:36:54;12.90;99.90
32400;DHT22;45045;45.440;9.178;2022-12-24T11:39:23;12.90;99.90
32400;DHT22;45045;45.440;9.178;2022-12-24T11:41:51;12.90;99.90
32400;DHT22;45045;45.440;9.178;2022-12-24T11:44:27;12.90;99.90
32400;DHT22;45045;45.440;9.178;2022-12-24T11:46:54;12.90;99.90
32400;DHT22;45045;45.440;9.178;2022-12-24T11:49:28;12.90;99.90
32400;DHT22;45045;45.440;9.178;2022-12-24T11:57:11;13.40;99.90
32400;DHT22;45045;45.440;9.178;2022-12-24T11:59:43;14.10;99.90
32400;DHT22;45045;45.440;9.178;2022-12-24T12:02:22;14.60;99.90
32400;DHT22;45045;45.440;9.178;2022-12-24T12:04:56;15.00;99.90
32400;DHT22;45045;45.440;9.178;2022-12-24T12:07:29;15.20;99.90
32400;DHT22;45045;45.440;9.178;2022-12-24T12:12:52;15.60;99.90
32400;DHT22;45045;45.440;9.178;2022-12-24T12:15:23;15.70;99.90
32400;DHT22;45045;45.440;9.178;2022-12-24T12:18:14;15.60;99.90
32400;DHT22;45045;45.440;9.178;2022-12-24T12:20:46;15.60;99.90
32400;DHT22;45045;45.440;9.178;2022-12-24T12:23:20;14.90;99.90
32400;DHT22;45045;45.440;9.178;2022-12-24T12:26:09;14.20;99.90
32400;DHT22;45045;45.440;9.178;2022-12-24T12:31:44;13.20;99.90
32400;DHT22;45045;45.440;9.178;2022-12-24T12:34:20;13.20;99.90
32400;DHT22;45045;45.440;9.178;2022-12-24T12:36:50;13.20;99.90
32400;DHT22;45045;45.440;9.178;2022-12-24T12:39:17;13.10;99.90
32400;DHT22;45045;45.440;9.178;2022-12-24T12:41:54;13.00;99.90
32400;DHT22;45045;45.440;9.178;2022-12-24T12:50:33;13.20;99.90
32400;DHT22;45045;45.440;9.178;2022-12-24T12:56:18;13.10;99.90
32400;DHT22;45045;45.440;9.178;2022-12-24T12:58:47;13.00;99.90
32400;DHT22;45045;45.440;9.178;2022-12-24T13:01:38;13.20;99.90
32400;DHT22;45045;45.440;9.178;2022-12-24T13:21:02;13.00;99.90
32400;DHT22;45045;45.440;9.178;2022-12-24T13:23:27;13.10;99.90
32400;DHT22;45045;45.440;9.178;2022-12-24T13:25:55;13.00;99.90
32400;DHT22;45045;45.440;9.178;2022-12-24T13:36:15;13.00;99.90
32400;DHT22;45045;45.440;9.178;2022-12-24T13:38:56;13.10;99.90
32400;DHT22;45045;45.440;9.178;2022-12-24T13:55:05;13.70;99.90
32400;DHT22;45045;45.440;9.178;2022-12-24T13:57:40;14.00;99.90
32400;DHT22;45045;45.440;9.178;2022-12-24T14:05:55;14.60;99.90
32400;DHT22;45045;45.440;9.178;2022-12-24T14:11:16;15.20;99.90
32400;DHT22;45045;45.440;9.178;2022-12-24T14:16:41;15.30;99.90
32400;DHT22;45045;45.440;9.178;2022-12-24T14:19:14;15.20;99.90
32400;DHT22;45045;45.440;9.178;2022-12-24T14:24:30;14.10;99.90
32400;DHT22;45045;45.440;9.178;2022-12-24T14:27:04;14.10;99.90
32400;DHT22;45045;45.440;9.178;2022-12-24T14:29:40;14.50;99.90
32400;DHT22;45045;45.440;9.178;2022-12-24T14:32:15;14.00;99.90
32400;DHT22;45045;45.440;9.178;2022-12-24T14:34:41;13.80;99.90
32400;DHT22;45045;45.440;9.178;2022-12-24T14:37:09;13.40;99.90
32400;DHT22;45045;45.440;9.178;2022-12-24T14:39:43;13.20;99.90
32400;DHT22;45045;45.440;9.178;2022-12-24T14:45:31;12.80;99.90
32400;DHT22;45045;45.440;9.178;2022-12-24T14:48:34;12.80;99.90
32400;DHT22;45045;45.440;9.178;2022-12-24T14:50:58;12.80;99.90
32400;DHT22;45045;45.440;9.178;2022-12-24T14:56:09;12.70;99.90
32400;DHT22;45045;45.440;9.178;2022-12-24T14:58:38;12.70;99.90
32400;DHT22;45045;45.440;9.178;2022-12-24T15:04:03;12.80;99.90
32400;DHT22;45045;45.440;9.178;2022-12-24T15:09:02;12.80;99.90
32400;DHT22;45045;45.440;9.178;2022-12-24T15:11:28;12.80;99.90
32400;DHT22;45045;45.440;9.178;2022-12-24T15:13:56;12.80;99.90
32400;DHT22;45045;45.440;9.178;2022-12-24T15:16:31;12.80;99.90
32400;DHT22;45045;45.440;9.178;2022-12-24T15:19:21;12.80;99.90
32400;DHT22;45045;45.440;9.178;2022-12-24T15:21:45;12.80;99.90
32400;DHT22;45045;45.440;9.178;2022-12-24T15:24:28;12.80;99.90
32400;DHT22;45045;45.440;9.178;2022-12-24T15:26:56;12.80;99.90
32400;DHT22;45045;45.440;9.178;2022-12-24T15:29:25;12.70;99.90
32400;DHT22;45045;45.440;9.178;2022-12-24T15:31:56;12.70;99.90
32400;DHT22;45045;45.440;9.178;2022-12-24T15:34:30;12.80;99.90
32400;DHT22;45045;45.440;9.178;2022-12-24T15:37:02;12.90;99.90
32400;DHT22;45045;45.440;9.178;2022-12-24T15:39:29;12.90;99.90
32400;DHT22;45045;45.440;9.178;2022-12-24T15:41:55;12.90;99.90
32400;DHT22;45045;45.440;9.178;2022-12-24T15:44:46;12.90;99.90
32400;DHT22;45045;45.440;9.178;2022-12-24T15:47:17;12.90;99.90
32400;DHT22;45045;45.440;9.178;2022-12-24T15:49:49;12.80;99.90
32400;DHT22;45045;45.440;9.178;2022-12-24T15:52:18;12.90;99.90
32400;DHT22;45045;45.440;9.178;2022-12-24T15:54:47;12.80;99.90
32400;DHT22;45045;45.440;9.178;2022-12-24T15:57:23;12.80;99.90
32400;DHT22;45045;45.440;9.178;2022-12-24T15:59:54;12.90;99.90
32400;DHT22;45045;45.440;9.178;2022-12-24T16:08:02;12.90;99.90
32400;DHT22;45045;45.440;9.178;2022-12-24T16:10:31;12.90;99.90
32400;DHT22;45045;45.440;9.178;2022-12-24T16:12:57;12.90;99.90
32400;DHT22;45045;45.440;9.178;2022-12-24T16:15:24;12.90;99.90
32400;DHT22;45045;45.440;9.178;2022-12-24T16:17:50;12.90;99.90
32400;DHT22;45045;45.440;9.178;2022-12-24T16:20:20;12.90;99.90
32400;DHT22;45045;45.440;9.178;2022-12-24T16:22:47;12.90;99.90
32400;DHT22;45045;45.440;9.178;2022-12-24T16:25:27;12.90;99.90
32400;DHT22;45045;45.440;9.178;2022-12-24T16:27:53;12.90;99.90
32400;DHT22;45045;45.440;9.178;2022-12-24T16:30:19;12.90;99.90
32400;DHT22;45045;45.440;9.178;2022-12-24T16:32:46;12.90;99.90
32400;DHT22;45045;45.440;9.178;2022-12-24T16:35:30;12.90;99.90
32400;DHT22;45045;45.440;9.178;2022-12-24T16:38:01;12.90;99.90
32400;DHT22;45045;45.440;9.178;2022-12-24T16:40:27;12.80;99.90
32400;DHT22;45045;45.440;9.178;2022-12-24T16:42:53;12.80;99.90
32400;DHT22;45045;45.440;9.178;2022-12-24T16:45:37;12.80;99.90
32400;DHT22;45045;45.440;9.178;2022-12-24T16:48:05;12.80;99.90
32400;DHT22;45045;45.440;9.178;2022-12-24T16:50:31;12.70;99.90
32400;DHT22;45045;45.440;9.178;2022-12-24T16:52:57;12.60;99.90
32400;DHT22;45045;45.440;9.178;2022-12-24T16:55:22;12.70;99.90
32400;DHT22;45045;45.440;9.178;2022-12-24T16:57:48;13.20;99.90
32400;DHT22;45045;45.440;9.178;2022-12-24T17:00:16;13.70;99.90
32400;DHT22;45045;45.440;9.178;2022-12-24T17:02:44;13.30;99.90
32400;DHT22;45045;45.440;9.178;2022-12-24T17:05:10;13.00;99.90
32400;DHT22;45045;45.440;9.178;2022-12-24T17:07:36;12.90;99.90
32400;DHT22;45045;45.440;9.178;2022-12-24T17:10:01;12.80;99.90
32400;DHT22;45045;45.440;9.178;2022-12-24T17:12:27;12.70;99.90
32400;DHT22;45045;45.440;9.178;2022-12-24T17:14:52;12.70;99.90
32400;DHT22;45045;45.440;9.178;2022-12-24T17:17:28;12.70;99.90
32400;DHT22;45045;45.440;9.178;2022-12-24T17:19:55;12.60;99.90
32400;DHT22;45045;45.440;9.178;2022-12-24T17:22:21;12.60;99.90
32400;DHT22;45045;45.440;9.178;2022-12-24T17:24:47;12.70;99.90
32400;DHT22;45045;45.440;9.178;2022-12-24T17:27:12;12.70;99.90
32400;DHT22;45045;45.440;9.178;2022-12-24T17:29:38;12.70;99.90
32400;DHT22;45045;45.440;9.178;2022-12-24T17:32:04;12.60;99.90
32400;DHT22;45045;45.440;9.178;2022-12-24T17:34:30;12.80;99.90
32400;DHT22;45045;45.440;9.178;2022-12-24T17:36:56;13.20;99.90
32400;DHT22;45045;45.440;9.178;2022-12-24T17:39:21;12.90;99.90
32400;DHT22;45045;45.440;9.178;2022-12-24T17:41:47;12.80;99.90
32400;DHT22;45045;45.440;9.178;2022-12-24T17:44:13;12.70;99.90
32400;DHT22;45045;45.440;9.178;2022-12-24T17:46:39;12.70;99.90
32400;DHT22;45045;45.440;9.178;2022-12-24T17:49:05;12.60;99.90
32400;DHT22;45045;45.440;9.178;2022-12-24T17:51:31;12.60;99.90
32400;DHT22;45045;45.440;9.178;2022-12-24T17:53:59;12.50;99.90
32400;DHT22;45045;45.440;9.178;2022-12-24T17:56:25;12.50;99.90